Pagrindinis puslapis
METAR-TAF:

METAR-TAF

Oro uostai :

Lokarnas, Šveicarija

platuma: 46-09-55N, ilguma: 8-52-40E, Aukštis: 198 m

Dabartinis oras

Ataskaita buvo paskelbta 10 minutes, ne 18:50 UTC
Vėjas 1 kt nuo kintamojo kryptimis
Temperatūra 17°C
Drėgmė 100%
Slėgis 1022 hPa
Matomumas 10 km arba daugiau
Apsiniaukę ne aukštis 3900 ft

METAR: LSZL 191850Z AUTO VRB01KT 9999NDV OVC039 17/17 Q1022 RMK

Laikas: 21:00 (19:00 UTC)

Prognozė

Ataskaita buvo paskelbta 1 valandą ir 35 minutes, ne 17:25 UTC
Prognozė galioja nuo 19 metu 18 UTC su 20 metu 03 UTC
Vėjas 3 kt nuo kintamojo kryptimis
Matomumas 10 km arba daugiau
Su prošvaistėmis ne aukštis 4000 ft

TAF: LSZL 191725Z 1918/2003 VRB03KT 9999 BKN040

Orai ataskaitas ir orų prognozės (METAR, TAF).

turimą stotys yra geltonos ir raudonos taškus žemėlapyje.

Perkelti pele per norėdami pamatyti stoties vardą.

Tada spustelėkite, norėdami matyti oro stebėjimo ir prognozės.

Norėdami pakeisti žemėlapį: spustelėkite ant žalios mygtukų su juodo kryžiaus žemyn,; žalią mygtuką su brūkšneliu, jei norite nutolinti; arba žalių rodyklių gretimoms žemėlapius.


METAR-TAF: